createdAt,value
2023-04-10T00:00:04.158Z,89.17
2023-04-10T00:02:51.329Z,89.42
2023-04-10T00:05:36.871Z,89.16
2023-04-10T00:08:24.206Z,88.63
2023-04-10T00:11:09.627Z,88.77
2023-04-10T00:13:55.119Z,88.15
2023-04-10T00:16:41.139Z,88.31
2023-04-10T00:19:26.910Z,87.91
2023-04-10T00:22:12.231Z,87.42
2023-04-10T00:24:57.637Z,87.21
2023-04-10T00:27:43.151Z,86.84
2023-04-10T00:30:28.628Z,86.23
2023-04-10T00:33:14.700Z,86.19
2023-04-10T00:36:00.223Z,86.38
2023-04-10T00:38:46.576Z,86.38
2023-04-10T00:41:31.877Z,86.56
2023-04-10T00:44:17.687Z,86.48
2023-04-10T00:47:05.044Z,86.72
2023-04-10T00:49:50.758Z,86.88
2023-04-10T00:52:36.504Z,86.40
2023-04-10T00:55:21.859Z,86.58
2023-04-10T00:58:08.221Z,86.63
2023-04-10T01:00:56.329Z,86.84
2023-04-10T01:03:43.718Z,86.60
2023-04-10T01:06:48.165Z,86.68
2023-04-10T01:09:39.957Z,86.60
2023-04-10T01:13:19.817Z,86.57
2023-04-10T01:16:16.131Z,86.19
2023-04-10T01:19:11.384Z,86.13
2023-04-10T01:21:59.516Z,86.15
2023-04-10T01:25:27.132Z,86.65
2023-04-10T01:28:46.416Z,86.81
2023-04-10T01:31:39.190Z,86.83
2023-04-10T01:34:32.730Z,87.18
2023-04-10T01:37:27.793Z,87.40
2023-04-10T01:40:16.567Z,87.44
2023-04-10T01:43:06.326Z,87.58
2023-04-10T01:46:03.989Z,87.71
2023-04-10T01:48:52.246Z,87.61
2023-04-10T01:51:37.504Z,87.93
2023-04-10T01:54:28.069Z,88.24
2023-04-10T01:57:15.165Z,88.10
2023-04-10T02:00:27.955Z,88.17
2023-04-10T02:03:14.006Z,88.14
2023-04-10T02:06:16.096Z,88.61
2023-04-10T02:09:18.965Z,88.55
2023-04-10T02:12:09.335Z,88.59
2023-04-10T02:14:56.968Z,88.65
2023-04-10T02:17:42.968Z,89.37
2023-04-10T02:20:28.809Z,89.30
2023-04-10T02:23:17.334Z,89.64
2023-04-10T02:26:09.456Z,89.50
2023-04-10T02:28:55.254Z,89.41
2023-04-10T02:31:43.249Z,89.23
2023-04-10T02:34:29.552Z,89.30
2023-04-10T02:37:15.068Z,89.78
2023-04-10T02:40:00.701Z,89.85
2023-04-10T02:42:52.383Z,90.18
2023-04-10T02:45:38.405Z,89.75
2023-04-10T02:48:26.619Z,90.40
2023-04-10T02:51:18.389Z,90.27
2023-04-10T02:54:05.247Z,90.26
2023-04-10T02:56:51.892Z,90.27
2023-04-10T02:59:37.813Z,91.09
2023-04-10T03:02:24.810Z,90.67
2023-04-10T03:05:11.478Z,91.27
2023-04-10T03:07:56.829Z,91.45
2023-04-10T03:10:45.522Z,91.30
2023-04-10T03:13:31.349Z,91.18
2023-04-10T03:16:18.782Z,91.48
2023-04-10T03:19:05.381Z,91.09
2023-04-10T03:21:50.699Z,91.80
2023-04-10T03:24:38.354Z,91.62
2023-04-10T03:27:23.713Z,91.83
2023-04-10T03:30:09.952Z,92.32
2023-04-10T03:33:00.632Z,91.98
2023-04-10T03:35:47.525Z,92.25
2023-04-10T03:38:33.562Z,91.96
2023-04-10T03:41:18.867Z,92.11
2023-04-10T03:44:04.646Z,92.30
2023-04-10T03:46:50.541Z,92.43
2023-04-10T03:49:36.078Z,93.09
2023-04-10T03:52:25.973Z,92.63
2023-04-10T03:55:11.521Z,92.96
2023-04-10T03:57:56.911Z,93.09
2023-04-10T04:00:44.023Z,93.21
2023-04-10T04:03:38.515Z,93.12
2023-04-10T04:06:43.946Z,93.43
2023-04-10T04:09:45.009Z,93.42
2023-04-10T04:12:41.828Z,93.71
2023-04-10T04:15:40.836Z,93.47
2023-04-10T04:18:42.925Z,93.69
2023-04-10T04:21:48.551Z,93.84
2023-04-10T04:24:43.666Z,93.85
2023-04-10T04:27:42.889Z,93.28
2023-04-10T04:30:47.265Z,93.36
2023-04-10T04:33:46.553Z,93.70
2023-04-10T04:36:58.118Z,93.48
2023-04-10T04:40:14.467Z,93.70
2023-04-10T04:43:19.275Z,93.18
2023-04-10T04:46:19.369Z,93.31
2023-04-10T04:49:28.789Z,93.02
2023-04-10T04:52:46.564Z,92.37
2023-04-10T04:55:51.332Z,92.08
2023-04-10T04:58:58.310Z,91.57
2023-04-10T05:02:11.313Z,91.29
2023-04-10T05:05:18.085Z,91.18
2023-04-10T05:08:22.785Z,91.34
2023-04-10T05:11:32.255Z,91.43
2023-04-10T05:14:53.739Z,91.61
2023-04-10T05:18:00.246Z,91.14
2023-04-10T05:20:59.471Z,91.67
2023-04-10T05:27:04.227Z,91.74
2023-04-10T05:30:01.634Z,91.03
2023-04-10T05:32:56.281Z,91.13
2023-04-10T05:35:54.984Z,91.50
2023-04-10T05:38:51.565Z,91.91
2023-04-10T05:42:04.653Z,92.45
2023-04-10T05:45:17.164Z,92.47
2023-04-10T05:48:06.371Z,92.35
2023-04-10T05:51:25.051Z,92.46
2023-04-10T05:54:29.150Z,92.51
2023-04-10T05:57:40.882Z,92.81
2023-04-10T06:00:39.156Z,92.40
2023-04-10T06:03:44.510Z,92.73
2023-04-10T06:06:32.844Z,92.67
2023-04-10T06:09:18.688Z,92.17
2023-04-10T06:12:05.026Z,92.49
2023-04-10T06:14:50.910Z,92.66
2023-04-10T06:17:46.822Z,92.19
2023-04-10T06:20:33.231Z,92.00
2023-04-10T06:23:18.688Z,92.07
2023-04-10T06:26:05.688Z,90.85
2023-04-10T06:28:51.994Z,91.43
2023-04-10T06:31:38.763Z,90.96
2023-04-10T06:34:24.204Z,90.79
2023-04-10T06:37:19.435Z,90.51
2023-04-10T06:40:08.185Z,90.41
2023-04-10T06:42:53.846Z,91.21
2023-04-10T06:45:57.775Z,91.55
2023-04-10T06:48:43.672Z,91.55
2023-04-10T06:51:30.173Z,91.57
2023-04-10T06:54:17.212Z,91.42
2023-04-10T06:57:09.666Z,90.82
2023-04-10T07:00:06.552Z,90.68
2023-04-10T07:02:58.830Z,90.67
2023-04-10T07:05:46.332Z,90.78
2023-04-10T07:08:32.396Z,90.97
2023-04-10T07:11:18.268Z,91.12
2023-04-10T07:14:04.329Z,90.83
2023-04-10T07:16:49.834Z,90.71
2023-04-10T07:19:35.675Z,91.23
2023-04-10T07:22:21.637Z,91.48
2023-04-10T07:25:08.347Z,91.67
2023-04-10T07:27:53.933Z,92.02
2023-04-10T07:30:39.608Z,92.14
2023-04-10T07:33:25.034Z,91.25
2023-04-10T07:36:10.716Z,91.29
2023-04-10T07:38:57.431Z,91.39
2023-04-10T07:41:43.966Z,91.08
2023-04-10T07:44:30.576Z,90.87
2023-04-10T07:47:16.729Z,91.15
2023-04-10T07:50:02.853Z,91.26
2023-04-10T07:52:49.109Z,91.40
2023-04-10T07:55:39.421Z,91.89
2023-04-10T07:58:24.969Z,91.74
2023-04-10T08:01:11.265Z,91.30
2023-04-10T08:03:57.218Z,90.95
2023-04-10T08:06:43.222Z,90.80
2023-04-10T08:09:29.751Z,90.72
2023-04-10T08:12:16.157Z,90.66
2023-04-10T08:15:02.329Z,90.26
2023-04-10T08:17:47.950Z,89.80
2023-04-10T08:20:37.011Z,89.00
2023-04-10T08:23:27.652Z,88.95
2023-04-10T08:26:14.194Z,88.21
2023-04-10T08:29:01.010Z,87.82
2023-04-10T08:31:46.715Z,87.39
2023-04-10T08:34:32.284Z,87.31
2023-04-10T08:37:19.751Z,87.28
2023-04-10T08:40:06.816Z,86.62
2023-04-10T08:42:52.548Z,86.27
2023-04-10T08:45:40.936Z,86.71
2023-04-10T08:48:44.103Z,87.04
2023-04-10T08:51:39.543Z,87.29
2023-04-10T08:54:29.250Z,86.48
2023-04-10T08:57:20.983Z,87.22
2023-04-10T09:00:22.145Z,86.67
2023-04-10T09:03:12.063Z,87.15
2023-04-10T09:06:02.243Z,87.31
2023-04-10T09:08:48.954Z,87.20
2023-04-10T09:12:10.948Z,86.34
2023-04-10T09:14:57.411Z,86.52
2023-04-10T09:18:03.341Z,85.95
2023-04-10T09:20:51.828Z,86.89
2023-04-10T09:23:37.496Z,86.60
2023-04-10T09:26:27.890Z,87.60
2023-04-10T09:29:13.243Z,87.21
2023-04-10T09:31:59.206Z,87.24
2023-04-10T09:34:58.775Z,88.40
2023-04-10T09:37:47.185Z,87.55
2023-04-10T09:40:32.866Z,87.79
2023-04-10T09:43:20.996Z,87.51
2023-04-10T09:46:06.862Z,87.46
2023-04-10T09:49:00.878Z,86.85
2023-04-10T09:51:47.606Z,87.36
2023-04-10T09:54:37.113Z,87.65
2023-04-10T09:57:24.787Z,88.44
2023-04-10T10:00:12.755Z,89.19
2023-04-10T10:03:00.523Z,89.21
2023-04-10T10:05:49.246Z,89.91
2023-04-10T10:08:36.896Z,89.02
2023-04-10T10:11:25.113Z,88.64
2023-04-10T10:14:18.271Z,87.94
2023-04-10T10:17:12.425Z,87.83
2023-04-10T10:20:11.470Z,87.78
2023-04-10T10:23:04.348Z,88.04
2023-04-10T10:25:51.302Z,87.70
2023-04-10T10:28:37.875Z,87.93
2023-04-10T10:31:26.448Z,88.24
2023-04-10T10:34:13.564Z,88.48
2023-04-10T10:37:00.388Z,88.32
2023-04-10T10:40:04.853Z,88.24
2023-04-10T10:43:08.673Z,88.57
2023-04-10T10:46:17.526Z,89.28
2023-04-10T10:49:03.975Z,89.15
2023-04-10T10:51:50.963Z,89.58
2023-04-10T10:54:42.290Z,90.16
2023-04-10T10:57:47.422Z,90.21
2023-04-10T11:00:57.275Z,90.24
2023-04-10T11:03:46.785Z,90.24
2023-04-10T11:06:51.869Z,88.44
2023-04-10T11:09:52.433Z,88.07
2023-04-10T11:13:19.680Z,87.84
2023-04-10T11:16:07.731Z,87.24
2023-04-10T11:19:06.436Z,86.09
2023-04-10T11:22:03.587Z,86.71
2023-04-10T11:25:00.266Z,87.86
2023-04-10T11:27:51.760Z,87.86
2023-04-10T11:30:37.556Z,88.49
2023-04-10T11:33:23.181Z,87.44
2023-04-10T11:36:09.288Z,87.20
2023-04-10T11:38:55.272Z,87.59
2023-04-10T11:41:44.632Z,86.69
2023-04-10T11:44:33.048Z,87.23
2023-04-10T11:47:18.850Z,87.57
2023-04-10T11:50:06.319Z,87.93
2023-04-10T11:52:54.001Z,88.50
2023-04-10T11:55:41.183Z,88.43
2023-04-10T11:58:32.960Z,88.13
2023-04-10T12:01:21.340Z,86.97
2023-04-10T12:04:22.584Z,87.01
2023-04-10T12:07:08.776Z,87.00
2023-04-10T12:09:59.882Z,87.91
2023-04-10T12:12:46.997Z,88.12
2023-04-10T12:15:34.565Z,88.59
2023-04-10T12:18:22.496Z,88.80
2023-04-10T12:21:08.529Z,89.02
2023-04-10T12:23:54.451Z,88.53
2023-04-10T12:26:48.623Z,87.59
2023-04-10T12:29:34.289Z,86.57
2023-04-10T12:32:20.674Z,86.88
2023-04-10T12:35:07.734Z,85.92
2023-04-10T12:38:07.900Z,84.21
2023-04-10T12:41:03.281Z,83.63
2023-04-10T12:43:49.719Z,83.37
2023-04-10T12:46:39.412Z,83.74
2023-04-10T12:49:26.116Z,81.87
2023-04-10T12:52:22.946Z,81.14
2023-04-10T12:55:21.171Z,79.56
2023-04-10T12:58:22.627Z,78.82
2023-04-10T13:01:09.826Z,77.86
2023-04-10T13:03:56.275Z,78.01
2023-04-10T13:06:46.151Z,78.88
2023-04-10T13:09:32.591Z,79.29
2023-04-10T13:12:18.544Z,78.61
2023-04-10T13:15:05.083Z,78.39
2023-04-10T13:17:51.499Z,78.38
2023-04-10T13:20:38.929Z,78.34
2023-04-10T13:23:24.464Z,78.84
2023-04-10T13:26:10.783Z,79.48
2023-04-10T13:29:14.995Z,79.78
2023-04-10T13:32:12.318Z,80.01
2023-04-10T13:35:04.314Z,79.88
2023-04-10T13:37:53.218Z,80.72
2023-04-10T13:40:39.623Z,80.42
2023-04-10T13:43:25.149Z,80.89
2023-04-10T13:46:24.209Z,81.36
2023-04-10T13:49:10.035Z,79.90
2023-04-10T13:51:56.742Z,79.90
2023-04-10T13:54:43.083Z,79.24
2023-04-10T13:57:32.477Z,79.35
2023-04-10T14:00:18.210Z,78.30
2023-04-10T14:03:04.535Z,79.46
2023-04-10T14:05:50.709Z,78.86
2023-04-10T14:08:36.460Z,79.04
2023-04-10T14:11:23.619Z,78.75
2023-04-10T14:14:09.179Z,78.99
2023-04-10T14:16:55.282Z,79.95
2023-04-10T14:19:43.881Z,78.94
2023-04-10T14:22:30.503Z,78.70
2023-04-10T14:25:16.660Z,78.84
2023-04-10T14:28:02.563Z,78.53
2023-04-10T14:30:50.455Z,78.94
2023-04-10T14:33:36.789Z,79.30
2023-04-10T14:36:23.125Z,78.55
2023-04-10T14:39:39.422Z,78.84
2023-04-10T14:42:27.812Z,79.18
2023-04-10T14:45:14.633Z,79.02
2023-04-10T14:48:01.039Z,78.63
2023-04-10T14:50:47.266Z,79.33
2023-04-10T14:53:33.503Z,79.67
2023-04-10T14:56:22.612Z,80.27
2023-04-10T14:59:08.498Z,80.37
2023-04-10T15:01:54.897Z,80.61
2023-04-10T15:04:40.544Z,80.42
2023-04-10T15:07:29.264Z,79.54
2023-04-10T15:10:17.690Z,78.46
2023-04-10T15:13:04.081Z,78.78
2023-04-10T15:15:52.020Z,77.64
2023-04-10T15:18:41.986Z,76.74
2023-04-10T15:21:39.548Z,76.12
2023-04-10T15:24:30.716Z,76.73
2023-04-10T15:27:35.786Z,76.60
2023-04-10T15:30:34.481Z,75.94
2023-04-10T15:33:31.593Z,75.52
2023-04-10T15:36:17.696Z,75.73
2023-04-10T15:39:18.975Z,76.38
2023-04-10T15:42:06.136Z,76.21
2023-04-10T15:44:51.792Z,76.30
2023-04-10T15:47:37.851Z,76.23
2023-04-10T15:50:39.753Z,76.32
2023-04-10T15:53:29.130Z,76.46
2023-04-10T15:56:16.096Z,76.61
2023-04-10T15:59:01.895Z,76.40
2023-04-10T16:01:47.737Z,76.03
2023-04-10T16:04:33.289Z,76.16
2023-04-10T16:07:21.038Z,76.45
2023-04-10T16:10:09.333Z,76.62
2023-04-10T16:12:56.590Z,76.63
2023-04-10T16:15:41.944Z,76.47
2023-04-10T16:18:27.799Z,76.69
2023-04-10T16:21:16.521Z,76.72
2023-04-10T16:24:02.171Z,76.89
2023-04-10T16:26:47.912Z,77.19
2023-04-10T16:29:34.962Z,77.59
2023-04-10T16:32:21.304Z,77.92
2023-04-10T16:35:07.829Z,78.00
2023-04-10T16:37:53.950Z,78.35
2023-04-10T16:40:39.291Z,78.33
2023-04-10T16:43:29.353Z,78.44
2023-04-10T16:46:17.171Z,78.46
2023-04-10T16:49:03.030Z,77.70
2023-04-10T16:51:49.670Z,77.76
2023-04-10T16:54:37.933Z,77.57
2023-04-10T16:57:23.768Z,77.44
2023-04-10T17:00:11.156Z,77.63
2023-04-10T17:02:59.150Z,77.68
2023-04-10T17:05:46.752Z,77.88
2023-04-10T17:08:33.965Z,77.64
2023-04-10T17:11:19.965Z,77.57
2023-04-10T17:14:07.303Z,77.18
2023-04-10T17:16:54.100Z,77.32
2023-04-10T17:20:30.070Z,77.05
2023-04-10T17:23:18.510Z,77.01
2023-04-10T17:26:07.777Z,76.75
2023-04-10T17:29:08.948Z,77.39
2023-04-10T17:32:19.008Z,77.79
2023-04-10T17:35:16.699Z,78.36
2023-04-10T17:38:30.344Z,79.02
2023-04-10T17:41:54.990Z,79.20
2023-04-10T17:44:41.037Z,81.19
2023-04-10T17:47:27.818Z,81.89
2023-04-10T17:50:16.289Z,82.08
2023-04-10T17:53:13.223Z,82.34
2023-04-10T17:56:21.401Z,82.91
2023-04-10T17:59:12.737Z,83.00
2023-04-10T18:02:03.676Z,83.02
2023-04-10T18:04:50.179Z,82.93
2023-04-10T18:07:35.815Z,82.80
2023-04-10T18:10:21.585Z,83.09
2023-04-10T18:13:07.072Z,82.67
2023-04-10T18:15:52.475Z,82.74
2023-04-10T18:18:46.833Z,82.71
2023-04-10T18:21:37.669Z,82.90
2023-04-10T18:24:23.006Z,82.82
2023-04-10T18:27:08.344Z,82.09
2023-04-10T18:29:53.769Z,81.25
2023-04-10T18:32:40.431Z,81.20
2023-04-10T18:35:26.059Z,80.61
2023-04-10T18:38:11.469Z,80.33
2023-04-10T18:40:57.591Z,80.36
2023-04-10T18:43:46.681Z,80.42
2023-04-10T18:46:36.759Z,80.87
2023-04-10T18:49:22.363Z,81.28
2023-04-10T18:52:08.554Z,81.80
2023-04-10T18:54:54.820Z,82.56
2023-04-10T18:57:40.243Z,82.73
2023-04-10T19:00:25.985Z,82.23
2023-04-10T19:03:12.966Z,82.49
2023-04-10T19:05:58.959Z,82.39
2023-04-10T19:08:44.802Z,82.00
2023-04-10T19:11:30.379Z,82.36
2023-04-10T19:14:16.837Z,82.13
2023-04-10T19:17:06.004Z,82.13
2023-04-10T19:19:53.188Z,82.10
2023-04-10T19:22:38.841Z,82.19
2023-04-10T19:25:24.289Z,82.69
2023-04-10T19:28:12.685Z,82.23
2023-04-10T19:31:18.653Z,81.74
2023-04-10T19:34:12.668Z,81.43
2023-04-10T19:37:12.961Z,80.51
2023-04-10T19:40:08.743Z,80.19
2023-04-10T19:42:57.435Z,79.97
2023-04-10T19:45:44.850Z,81.30
2023-04-10T19:48:40.573Z,82.17
2023-04-10T19:51:30.274Z,83.65
2023-04-10T19:54:32.480Z,84.28
2023-04-10T19:57:18.296Z,85.03
2023-04-10T20:00:04.681Z,85.92
2023-04-10T20:03:00.145Z,85.50
2023-04-10T20:05:45.971Z,85.46
2023-04-10T20:08:31.875Z,85.48
2023-04-10T20:11:17.432Z,84.95
2023-04-10T20:14:02.937Z,84.56
2023-04-10T20:16:48.530Z,84.13
2023-04-10T20:19:34.611Z,83.61
2023-04-10T20:22:20.231Z,83.01
2023-04-10T20:25:06.458Z,82.49
2023-04-10T20:27:51.730Z,82.11
2023-04-10T20:30:40.420Z,82.62
2023-04-10T20:33:25.762Z,82.06
2023-04-10T20:36:11.636Z,81.94
2023-04-10T20:38:57.368Z,82.51
2023-04-10T20:41:43.155Z,82.11
2023-04-10T20:44:29.211Z,81.99
2023-04-10T20:47:15.393Z,82.12
2023-04-10T20:50:00.721Z,82.48
2023-04-10T20:52:46.328Z,83.05
2023-04-10T20:55:32.193Z,83.06
2023-04-10T20:58:20.784Z,83.26
2023-04-10T21:01:08.908Z,83.00
2023-04-10T21:03:56.170Z,82.68
2023-04-10T21:06:41.773Z,82.87
2023-04-10T21:09:27.842Z,81.89
2023-04-10T21:12:13.636Z,81.84
2023-04-10T21:14:59.255Z,81.71
2023-04-10T21:17:44.900Z,82.45
2023-04-10T21:20:31.206Z,82.99
2023-04-10T21:23:17.095Z,83.30
2023-04-10T21:26:03.570Z,83.71
2023-04-10T21:28:49.823Z,83.29
2023-04-10T21:31:45.000Z,82.98
2023-04-10T21:34:39.498Z,83.07
2023-04-10T21:37:25.138Z,82.71
2023-04-10T21:40:13.755Z,83.06
2023-04-10T21:43:00.710Z,82.88
2023-04-10T21:45:49.338Z,82.90
2023-04-10T21:48:36.540Z,82.33
2023-04-10T21:51:26.869Z,82.44
2023-04-10T21:54:13.679Z,82.69
2023-04-10T21:57:01.467Z,82.50
2023-04-10T21:59:46.899Z,81.98
2023-04-10T22:02:32.697Z,82.04
2023-04-10T22:05:18.662Z,82.23
2023-04-10T22:08:03.891Z,81.76
2023-04-10T22:10:50.944Z,81.97
2023-04-10T22:13:36.534Z,82.67
2023-04-10T22:16:22.092Z,82.12
2023-04-10T22:19:07.654Z,82.09
2023-04-10T22:21:53.449Z,81.91
2023-04-10T22:24:39.547Z,81.22
2023-04-10T22:27:27.553Z,81.95
2023-04-10T22:30:15.903Z,82.40
2023-04-10T22:33:01.808Z,83.36
2023-04-10T22:35:47.588Z,83.36
2023-04-10T22:38:32.957Z,83.78
2023-04-10T22:41:19.137Z,83.24
2023-04-10T22:44:05.065Z,82.83
2023-04-10T22:46:50.468Z,82.43
2023-04-10T22:49:35.932Z,83.19
2023-04-10T22:52:21.329Z,83.05
2023-04-10T22:55:07.737Z,83.12
2023-04-10T22:57:53.254Z,83.41
2023-04-10T23:00:38.822Z,83.06
2023-04-10T23:03:24.429Z,82.78
2023-04-10T23:06:09.950Z,82.19
2023-04-10T23:08:56.480Z,82.42
2023-04-10T23:11:42.082Z,83.20
2023-04-10T23:14:27.623Z,83.49
2023-04-10T23:17:13.090Z,83.93
2023-04-10T23:19:59.222Z,85.04
2023-04-10T23:22:44.649Z,85.41
2023-04-10T23:25:30.111Z,86.07
2023-04-10T23:28:15.763Z,86.47
2023-04-10T23:31:01.455Z,85.67
2023-04-10T23:33:46.891Z,85.82
2023-04-10T23:36:32.362Z,85.21
2023-04-10T23:39:17.842Z,85.42
2023-04-10T23:42:03.198Z,85.33
2023-04-10T23:44:48.657Z,85.60
2023-04-10T23:47:34.020Z,84.09
2023-04-10T23:50:19.313Z,83.59
2023-04-10T23:53:08.461Z,83.13
2023-04-10T23:55:54.112Z,82.11
2023-04-10T23:58:39.854Z,82.24
